Terminal Aerodrome Forecast
Issued by NWS

Home | Current Version | Previous Version | Text Only | Print | Product List | Glossary On
Versions: 1 2 3 4 5 6 7 8 9 10 11 12
083
FTAK31 PAJN 231134
TAFAPG
TAF
PAPG 231134Z 2312/2412 24003KT P6SM -SN SCT010 BKN035 OVC050
     FM231500 VRB04KT 3SM -SN BKN025 OVC035
     FM232000 12006KT 5SM -RASN SCT010 BKN025 OVC040
     FM240200 VRB04KT P6SM VCSH SCT025 OVC040
      AMD LTD TO CLD VIS AND WIND 2312/2315=

USA.gov is the U.S. government's official web portal to all federal, state and local government web resources and services.